createdAt,value
2016-08-27T00:04:31.567Z,"  -73"
2016-08-27T00:09:28.200Z,"  -70"
2016-08-27T00:14:24.959Z,"  -70"
2016-08-27T00:19:21.421Z,"  -69"
2016-08-27T00:24:17.990Z,"  -69"
2016-08-27T00:29:15.516Z,"  -69"
2016-08-27T00:34:12.175Z,"  -68"
2016-08-27T00:39:08.695Z,"  -70"
2016-08-27T00:44:06.693Z,"  -69"
2016-08-27T00:49:02.956Z,"  -79"
2016-08-27T00:53:59.849Z,"  -81"
2016-08-27T00:58:56.459Z,"  -80"
2016-08-27T01:03:53.074Z,"  -71"
2016-08-27T01:08:51.589Z,"  -79"
2016-08-27T01:13:47.698Z,"  -79"
2016-08-27T01:18:44.404Z,"  -77"
2016-08-27T01:23:41.322Z,"  -74"
2016-08-27T01:28:37.908Z,"  -74"
2016-08-27T01:33:34.563Z,"  -79"
2016-08-27T01:38:31.112Z,"  -79"
2016-08-27T01:43:28.001Z,"  -80"
2016-08-27T01:48:24.604Z,"  -81"
2016-08-27T01:53:21.213Z,"  -76"
2016-08-27T01:58:17.921Z,"  -79"
2016-08-27T02:03:14.593Z,"  -70"
2016-08-27T02:08:11.728Z,"  -80"
2016-08-27T02:13:08.420Z,"  -80"
2016-08-27T02:18:05.379Z,"  -79"
2016-08-27T02:23:01.971Z,"  -80"
2016-08-27T02:27:58.543Z,"  -73"
2016-08-27T02:32:58.132Z,"  -72"
2016-08-27T02:37:54.216Z,"  -70"
2016-08-27T02:42:50.918Z,"  -70"
2016-08-27T02:47:47.634Z,"  -68"
2016-08-27T02:52:44.328Z,"  -69"
2016-08-27T02:57:40.964Z,"  -72"
2016-08-27T03:02:37.505Z,"  -70"
2016-08-27T03:07:34.372Z,"  -70"
2016-08-27T03:12:33.611Z,"  -68"
2016-08-27T03:17:29.774Z,"  -68"
2016-08-27T03:22:26.792Z,"  -70"
2016-08-27T03:27:23.544Z,"  -69"
2016-08-27T03:32:20.210Z,"  -70"
2016-08-27T03:37:19.183Z,"  -72"
2016-08-27T03:42:15.208Z,"  -69"
2016-08-27T03:47:11.872Z,"  -69"
2016-08-27T03:52:08.424Z,"  -68"
2016-08-27T03:57:04.969Z,"  -71"
2016-08-27T04:02:02.898Z,"  -68"
2016-08-27T04:06:59.242Z,"  -69"
2016-08-27T04:11:55.698Z,"  -69"
2016-08-27T04:16:53.496Z,"  -68"
2016-08-27T04:21:49.947Z,"  -69"
2016-08-27T04:26:46.640Z,"  -70"
2016-08-27T04:31:43.138Z,"  -69"
2016-08-27T04:36:39.888Z,"  -70"
2016-08-27T04:41:36.361Z,"  -69"
2016-08-27T04:46:32.982Z,"  -68"
2016-08-27T04:51:29.755Z,"  -68"
2016-08-27T04:56:26.370Z,"  -67"
2016-08-27T05:01:23.185Z,"  -69"
2016-08-27T05:06:20.136Z,"  -68"
2016-08-27T05:11:16.911Z,"  -70"
2016-08-27T05:16:13.683Z,"  -67"
2016-08-27T05:21:10.370Z,"  -68"
2016-08-27T05:26:07.001Z,"  -70"
2016-08-27T05:31:03.858Z,"  -70"
2016-08-27T05:36:00.579Z,"  -70"
2016-08-27T05:40:57.416Z,"  -70"
2016-08-27T05:45:54.164Z,"  -72"
2016-08-27T05:50:50.901Z,"  -72"
2016-08-27T05:55:47.427Z,"  -71"
2016-08-27T06:00:45.373Z,"  -69"
2016-08-27T06:05:41.797Z,"  -74"
2016-08-27T06:10:38.323Z,"  -68"
2016-08-27T06:15:35.194Z,"  -70"
2016-08-27T06:20:31.953Z,"  -70"
2016-08-27T06:25:28.699Z,"  -69"
2016-08-27T06:30:25.388Z,"  -68"
2016-08-27T06:35:22.177Z,"  -70"
2016-08-27T06:40:18.862Z,"  -70"
2016-08-27T06:45:15.662Z,"  -69"
2016-08-27T06:50:12.799Z,"  -71"
2016-08-27T06:55:09.461Z,"  -70"
2016-08-27T07:00:06.038Z,"  -69"
2016-08-27T07:05:02.743Z,"  -69"
2016-08-27T07:09:59.302Z,"  -68"
2016-08-27T07:14:56.344Z,"  -63"
2016-08-27T07:19:53.006Z,"  -63"
2016-08-27T07:24:49.780Z,"  -63"
2016-08-27T07:29:46.461Z,"  -63"
2016-08-27T07:34:43.129Z,"  -63"
2016-08-27T07:39:39.966Z,"  -63"
2016-08-27T07:44:36.720Z,"  -62"
2016-08-27T07:49:33.608Z,"  -62"
2016-08-27T07:54:30.293Z,"  -62"
2016-08-27T07:59:27.014Z,"  -63"
2016-08-27T08:04:26.310Z,"  -62"
2016-08-27T08:09:22.681Z,"  -62"
2016-08-27T08:14:20.029Z,"  -64"
2016-08-27T08:19:17.550Z,"  -62"
2016-08-27T08:24:15.188Z,"  -61"
2016-08-27T08:29:12.349Z,"  -64"
2016-08-27T08:34:09.441Z,"  -63"
2016-08-27T08:39:06.490Z,"  -64"
2016-08-27T08:44:03.332Z,"  -64"
2016-08-27T08:49:00.111Z,"  -65"
2016-08-27T08:53:56.794Z,"  -64"
2016-08-27T08:58:54.787Z,"  -64"
2016-08-27T09:03:50.809Z,"  -63"
2016-08-27T09:08:47.130Z,"  -64"
2016-08-27T09:13:43.271Z,"  -64"
2016-08-27T09:18:39.655Z,"  -65"
2016-08-27T09:23:36.079Z,"  -64"
2016-08-27T09:28:32.567Z,"  -64"
2016-08-27T09:33:29.161Z,"  -65"
2016-08-27T09:38:25.666Z,"  -64"
2016-08-27T09:43:25.180Z,"  -62"
2016-08-27T09:48:21.449Z,"  -63"
2016-08-27T09:53:20.493Z,"  -64"
2016-08-27T09:58:16.516Z,"  -64"
2016-08-27T10:03:13.085Z,"  -63"
2016-08-27T10:08:10.070Z,"  -62"
2016-08-27T10:13:06.649Z,"  -64"
2016-08-27T10:18:03.270Z,"  -63"
2016-08-27T10:23:01.061Z,"  -64"
2016-08-27T10:27:57.601Z,"  -64"
2016-08-27T10:32:54.358Z,"  -64"
2016-08-27T10:37:51.069Z,"  -65"
2016-08-27T10:42:47.871Z,"  -66"
2016-08-27T10:47:44.966Z,"  -70"
2016-08-27T10:52:41.618Z,"  -71"
2016-08-27T10:57:38.332Z,"  -70"
2016-08-27T11:02:35.019Z,"  -71"
2016-08-27T11:07:31.817Z,"  -70"
2016-08-27T11:12:28.546Z,"  -70"
2016-08-27T11:17:25.357Z,"  -70"
2016-08-27T11:22:22.102Z,"  -72"
2016-08-27T11:27:18.690Z,"  -73"
2016-08-27T11:32:15.381Z,"  -72"
2016-08-27T11:37:14.480Z,"  -71"
2016-08-27T11:42:10.750Z,"  -73"
2016-08-27T11:47:08.534Z,"  -73"
2016-08-27T11:52:05.368Z,"  -71"
2016-08-27T11:57:02.163Z,"  -71"
2016-08-27T12:01:59.038Z,"  -71"
2016-08-27T12:06:55.770Z,"  -70"
2016-08-27T12:11:54.065Z,"  -71"
2016-08-27T12:16:50.891Z,"  -71"
2016-08-27T12:21:47.592Z,"  -70"
2016-08-27T12:26:44.663Z,"  -71"
2016-08-27T12:31:41.454Z,"  -70"
2016-08-27T12:36:38.152Z,"  -69"
2016-08-27T12:41:37.322Z,"  -69"
2016-08-27T12:46:33.357Z,"  -70"
2016-08-27T12:51:30.108Z,"  -70"
2016-08-27T12:56:27.192Z,"  -70"
2016-08-27T13:01:23.919Z,"  -71"
2016-08-27T13:06:22.062Z,"  -71"
2016-08-27T13:11:18.733Z,"  -70"
2016-08-27T13:16:15.476Z,"  -70"
2016-08-27T13:21:12.036Z,"  -71"
2016-08-27T13:26:09.276Z,"  -70"
2016-08-27T13:31:06.273Z,"  -70"
2016-08-27T13:36:03.150Z,"  -69"
2016-08-27T13:40:59.865Z,"  -70"
2016-08-27T13:45:56.548Z,"  -70"
2016-08-27T13:50:53.214Z,"  -70"
2016-08-27T13:55:52.983Z,"  -70"
2016-08-27T14:00:49.093Z,"  -70"
2016-08-27T14:05:45.765Z,"  -70"
2016-08-27T14:10:42.608Z,"  -77"
2016-08-27T14:15:39.287Z,"  -72"
2016-08-27T14:20:35.889Z,"  -73"
2016-08-27T14:25:32.504Z,"  -73"
2016-08-27T14:30:29.354Z,"  -73"
2016-08-27T14:35:26.117Z,"  -73"
2016-08-27T14:40:22.874Z,"  -73"
2016-08-27T14:45:21.985Z,"  -73"
2016-08-27T14:50:18.134Z,"  -74"
2016-08-27T14:55:14.871Z,"  -74"
2016-08-27T15:00:11.673Z,"  -74"
2016-08-27T15:05:08.452Z,"  -72"
2016-08-27T15:10:05.512Z,"  -74"
2016-08-27T15:15:02.381Z,"  -73"
2016-08-27T15:20:00.361Z,"  -72"
2016-08-27T15:24:56.772Z,"  -73"
2016-08-27T15:29:53.516Z,"  -69"
2016-08-27T15:34:50.247Z,"  -72"
2016-08-27T15:39:47.017Z,"  -72"
2016-08-27T15:44:43.687Z,"  -73"
2016-08-27T15:49:40.505Z,"  -78"
2016-08-27T15:54:37.398Z,"  -74"
2016-08-27T15:59:34.047Z,"  -74"
2016-08-27T16:04:31.001Z,"  -75"
2016-08-27T16:09:27.660Z,"  -74"
2016-08-27T16:14:24.349Z,"  -75"
2016-08-27T16:19:23.661Z,"  -74"
2016-08-27T16:24:19.833Z,"  -76"
2016-08-27T16:29:18.975Z,"  -75"
2016-08-27T16:34:14.990Z,"  -75"
2016-08-27T16:39:11.638Z,"  -74"
2016-08-27T16:44:08.229Z,"  -76"
2016-08-27T16:49:04.984Z,"  -75"
2016-08-27T16:54:01.704Z,"  -75"
2016-08-27T16:58:58.297Z,"  -75"
2016-08-27T17:03:54.997Z,"  -75"
2016-08-27T17:08:51.691Z,"  -73"
2016-08-27T17:13:48.313Z,"  -75"
2016-08-27T17:18:45.011Z,"  -75"
2016-08-27T17:23:41.852Z,"  -74"
2016-08-27T17:28:38.471Z,"  -75"
2016-08-27T17:33:35.428Z,"  -75"
2016-08-27T17:38:32.234Z,"  -74"
2016-08-27T17:43:28.828Z,"  -75"
2016-08-27T17:48:25.595Z,"  -75"
2016-08-27T17:53:22.496Z,"  -71"
2016-08-27T17:58:19.192Z,"  -73"
2016-08-27T18:03:15.787Z,"  -73"
2016-08-27T18:08:13.177Z,"  -74"
2016-08-27T18:13:09.937Z,"  -73"
2016-08-27T18:18:06.724Z,"  -73"
2016-08-27T18:23:04.698Z,"  -73"
2016-08-27T18:28:01.109Z,"  -74"
2016-08-27T18:32:57.774Z,"  -73"
2016-08-27T18:37:54.265Z,"  -72"
2016-08-27T18:42:51.035Z,"  -73"
2016-08-27T18:47:48.868Z,"  -74"
2016-08-27T18:52:45.188Z,"  -73"
2016-08-27T18:57:41.684Z,"  -75"
2016-08-27T19:02:38.402Z,"  -74"
2016-08-27T19:07:35.142Z,"  -73"
2016-08-27T19:12:33.013Z,"  -73"
2016-08-27T19:17:29.478Z,"  -72"
2016-08-27T19:22:26.150Z,"  -73"
2016-08-27T19:27:23.050Z,"  -73"
2016-08-27T19:32:19.651Z,"  -73"
2016-08-27T19:37:16.400Z,"  -73"
2016-08-27T19:42:13.156Z,"  -72"
2016-08-27T19:47:11.258Z,"  -73"
2016-08-27T19:52:08.172Z,"  -73"
2016-08-27T19:57:04.698Z,"  -74"
2016-08-27T20:02:01.338Z,"  -74"
2016-08-27T20:06:57.941Z,"  -74"
2016-08-27T20:11:54.677Z,"  -74"
2016-08-27T20:16:51.497Z,"  -76"
2016-08-27T20:21:48.367Z,"  -75"
2016-08-27T20:26:45.263Z,"  -76"
2016-08-27T20:31:44.459Z,"  -76"
2016-08-27T20:36:40.541Z,"  -77"
2016-08-27T20:41:37.386Z,"  -75"
2016-08-27T20:46:34.129Z,"  -75"
2016-08-27T20:51:31.242Z,"  -76"
2016-08-27T20:56:28.031Z,"  -76"
2016-08-27T21:01:24.558Z,"  -72"
2016-08-27T21:06:21.239Z,"  -77"
2016-08-27T21:11:18.257Z,"  -77"
2016-08-27T21:16:14.752Z,"  -78"
2016-08-27T21:21:11.287Z,"  -73"
2016-08-27T21:26:08.082Z,"  -78"
2016-08-27T21:31:04.864Z,"  -76"
2016-08-27T21:36:01.660Z,"  -76"
2016-08-27T21:40:58.415Z,"  -76"
2016-08-27T21:45:54.934Z,"  -74"
2016-08-27T21:50:51.670Z,"  -68"
2016-08-27T21:55:48.650Z,"  -67"
2016-08-27T22:00:45.163Z,"  -68"
2016-08-27T22:05:42.184Z,"  -66"
2016-08-27T22:10:38.983Z,"  -67"
2016-08-27T22:15:35.918Z,"  -67"
2016-08-27T22:20:32.614Z,"  -66"
2016-08-27T22:25:29.287Z,"  -67"
2016-08-27T22:30:26.250Z,"  -65"
2016-08-27T22:35:22.853Z,"  -64"
2016-08-27T22:40:19.509Z,"  -62"
2016-08-27T22:45:17.493Z,"  -66"
2016-08-27T22:50:13.915Z,"  -66"
2016-08-27T22:55:10.986Z,"  -65"
2016-08-27T23:00:07.574Z,"  -69"
2016-08-27T23:05:04.306Z,"  -69"
2016-08-27T23:10:01.374Z,"  -67"
2016-08-27T23:14:58.112Z,"  -67"
2016-08-27T23:19:54.876Z,"  -66"
2016-08-27T23:24:51.483Z,"  -65"
2016-08-27T23:29:48.225Z,"  -65"
2016-08-27T23:34:45.205Z,"  -66"
2016-08-27T23:39:41.815Z,"  -67"
2016-08-27T23:44:41.042Z,"  -67"
2016-08-27T23:49:37.159Z,"  -66"
2016-08-27T23:54:33.875Z,"  -67"
2016-08-27T23:59:30.392Z,"  -67"
